Time;durP1;ratioP1;P1;durP2;ratioP2;P2;SDS_P1;SDS_P2;PMS_P1;PMS_P2;Temp;Humidity;BMP_temperature;BMP_pressure;BME280_temperature;BME280_humidity;BME280_pressure;Samples;Min_cycle;Max_cycle;Signal;HPM_P1;HPM_P2
2022/01/16 00:00:48;;;;;;;90.83;56.97;;;2.90;99.90;;;;;;4915631;28;88941;-31
2022/01/16 00:06:03;;;;;;;98.22;55.63;;;2.90;99.90;;;;;;4895792;28;89687;-33
2022/01/16 00:08:28;;;;;;;79.57;50.22;;;2.90;99.90;;;;;;4915673;28;87622;-31
2022/01/16 00:10:54;;;;;;;87.28;52.00;;;2.90;99.90;;;;;;4915193;28;88570;-30
2022/01/16 00:13:20;;;;;;;86.35;53.65;;;3.00;99.90;;;;;;4915053;28;89104;-32
2022/01/16 00:15:45;;;;;;;97.57;58.35;;;2.90;99.90;;;;;;4915082;28;89916;-30
2022/01/16 00:18:27;;;;;;;89.80;53.42;;;2.90;99.90;;;;;;4915327;28;87853;-33
2022/01/16 00:20:53;;;;;;;82.75;52.45;;;2.90;99.90;;;;;;4915517;28;87877;-30
2022/01/16 00:23:24;;;;;;;81.38;50.92;;;2.80;99.90;;;;;;4915071;28;90763;-33
2022/01/16 00:25:56;;;;;;;78.57;52.45;;;2.80;99.90;;;;;;4914994;28;88408;-31
2022/01/16 00:28:22;;;;;;;82.60;49.42;;;2.80;99.90;;;;;;4913714;28;88456;-30
2022/01/16 00:30:49;;;;;;;83.22;48.83;;;2.80;99.90;;;;;;4915140;28;87544;-32
2022/01/16 00:33:15;;;;;;;74.15;47.67;;;2.80;99.90;;;;;;4915111;28;90108;-32
2022/01/16 00:35:40;;;;;;;76.05;46.33;;;2.80;99.90;;;;;;4915008;28;89059;-29
2022/01/16 00:38:07;;;;;;;80.55;50.22;;;2.80;99.90;;;;;;4917076;28;87624;-31
2022/01/16 00:40:33;;;;;;;79.78;48.40;;;2.70;99.90;;;;;;4918466;28;87691;-31
2022/01/16 00:42:58;;;;;;;88.32;52.72;;;2.70;99.90;;;;;;4917706;28;90179;-30
2022/01/16 00:45:25;;;;;;;77.90;53.28;;;2.70;99.90;;;;;;4918225;28;89991;-31
2022/01/16 00:47:50;;;;;;;80.00;49.88;;;2.70;99.90;;;;;;4918168;28;87623;-31
2022/01/16 00:50:16;;;;;;;71.05;48.17;;;2.60;99.90;;;;;;4918223;28;87528;-31
2022/01/16 00:52:42;;;;;;;72.93;47.58;;;2.60;99.90;;;;;;4918065;28;90284;-30
2022/01/16 00:55:08;;;;;;;70.65;43.28;;;2.60;99.90;;;;;;4918187;28;89732;-30
2022/01/16 00:57:33;;;;;;;72.53;49.58;;;2.60;99.90;;;;;;4918384;28;88163;-29
2022/01/16 00:59:59;;;;;;;75.60;51.60;;;2.50;99.90;;;;;;4918307;28;87524;-33
2022/01/16 01:02:25;;;;;;;70.95;48.28;;;2.50;99.90;;;;;;4900402;28;90344;-31
2022/01/16 01:04:51;;;;;;;71.22;46.95;;;2.50;99.90;;;;;;4917864;28;88869;-30
2022/01/16 01:07:17;;;;;;;72.82;48.63;;;2.50;99.90;;;;;;4918190;28;88525;-30
2022/01/16 01:09:43;;;;;;;73.13;47.15;;;2.50;99.90;;;;;;4917662;28;88248;-32
2022/01/16 01:12:10;;;;;;;67.22;47.10;;;2.40;99.90;;;;;;4917837;28;90792;-31
2022/01/16 01:14:53;;;;;;;75.28;51.22;;;2.50;99.90;;;;;;4917867;28;89921;-30
2022/01/16 01:17:23;;;;;;;79.75;50.75;;;2.40;99.90;;;;;;4917772;28;88068;-31
2022/01/16 01:19:49;;;;;;;69.90;43.35;;;2.30;99.90;;;;;;4918138;28;89065;-29
2022/01/16 01:22:15;;;;;;;74.50;50.25;;;2.30;99.90;;;;;;4900294;28;90393;-33
2022/01/16 01:24:41;;;;;;;66.97;44.72;;;2.30;99.90;;;;;;4917647;28;89502;-31
2022/01/16 01:27:19;;;;;;;73.40;48.13;;;2.40;99.90;;;;;;4900458;28;88232;-32
2022/01/16 01:29:52;;;;;;;78.70;49.65;;;2.30;99.90;;;;;;4917805;28;87940;-31
2022/01/16 01:32:17;;;;;;;71.90;49.03;;;2.40;99.90;;;;;;4916749;28;89631;-31
2022/01/16 01:34:43;;;;;;;80.07;49.55;;;2.30;99.90;;;;;;4917690;28;89843;-30
2022/01/16 01:37:09;;;;;;;78.00;49.45;;;2.30;99.90;;;;;;4917413;28;87619;-31
2022/01/16 01:39:34;;;;;;;71.88;48.88;;;2.30;99.90;;;;;;4917424;28;88987;-31
2022/01/16 01:42:09;;;;;;;78.70;50.85;;;2.20;99.90;;;;;;4916719;28;90130;-30
2022/01/16 01:52:51;;;;;;;85.32;54.38;;;2.20;99.90;;;;;;4916529;28;90310;-30
2022/01/16 01:55:17;;;;;;;79.05;53.83;;;2.20;99.90;;;;;;4917431;28;89681;-29
2022/01/16 01:57:43;;;;;;;74.13;48.90;;;2.20;99.90;;;;;;4916715;28;87642;-30
2022/01/16 02:00:09;;;;;;;77.68;47.38;;;2.20;99.90;;;;;;4917399;28;87994;-30
2022/01/16 02:02:46;;;;;;;85.20;51.35;;;2.20;99.90;;;;;;4916861;28;90404;-30
2022/01/16 02:05:12;;;;;;;82.57;51.50;;;2.20;99.90;;;;;;4917304;28;89524;-29
2022/01/16 02:07:38;;;;;;;78.65;49.78;;;2.20;99.90;;;;;;4916956;28;89122;-32
2022/01/16 02:10:04;;;;;;;68.75;48.85;;;2.20;99.90;;;;;;4916992;28;87509;-30
2022/01/16 02:12:30;;;;;;;68.03;47.65;;;2.20;99.90;;;;;;4916634;28;89636;-33
2022/01/16 02:15:06;;;;;;;76.20;50.58;;;2.20;99.90;;;;;;4917058;28;89807;-30
2022/01/16 02:31:13;;;;;;;;;;;2.10;99.90;;;;;;4917317;28;88025;-30
2022/01/16 02:36:45;;;;;;;82.15;51.35;;;2.00;99.90;;;;;;4917243;28;91522;-31
2022/01/16 02:39:11;;;;;;;79.95;52.60;;;2.00;99.90;;;;;;4915862;28;87864;-30
2022/01/16 02:41:37;;;;;;;72.95;45.53;;;2.00;99.90;;;;;;4916722;28;87702;-30
2022/01/16 02:44:12;;;;;;;74.22;49.28;;;2.00;99.90;;;;;;4916345;28;90995;-29
2022/01/16 02:46:39;;;;;;;70.82;48.90;;;2.00;99.90;;;;;;4916685;28;90959;-31
2022/01/16 02:49:16;;;;;;;76.88;47.72;;;2.00;99.90;;;;;;4916655;28;87675;-30
2022/01/16 02:51:42;;;;;;;89.60;53.67;;;2.10;99.90;;;;;;4899037;28;87555;-29
2022/01/16 02:54:07;;;;;;;81.63;50.13;;;2.00;99.90;;;;;;4916298;28;88889;-30
2022/01/16 02:56:35;;;;;;;94.47;52.83;;;2.00;99.90;;;;;;4916518;28;88453;-32
2022/01/16 02:59:01;;;;;;;88.82;52.58;;;2.00;99.90;;;;;;4916143;28;87516;-33
2022/01/16 03:01:26;;;;;;;83.68;54.97;;;2.00;99.90;;;;;;4915744;28;87605;-33
2022/01/16 03:03:52;;;;;;;84.32;51.10;;;2.00;99.90;;;;;;4916101;28;90500;-31
2022/01/16 03:06:17;;;;;;;78.45;51.13;;;2.00;99.90;;;;;;4916324;28;89461;-32
2022/01/16 03:08:43;;;;;;;89.85;51.05;;;2.00;99.90;;;;;;4916359;28;87457;-30
2022/01/16 03:11:27;;;;;;;85.65;50.88;;;1.90;99.90;;;;;;4915985;28;87981;-31
2022/01/16 03:13:53;;;;;;;85.40;47.90;;;2.00;99.90;;;;;;4915554;28;90287;-31
2022/01/16 03:16:21;;;;;;;95.18;54.35;;;1.90;99.90;;;;;;4916585;28;89848;-30
2022/01/16 03:24:17;;;;;;;86.38;50.63;;;2.00;99.90;;;;;;4916445;28;90377;-29
2022/01/16 03:26:43;;;;;;;85.28;51.63;;;1.90;99.90;;;;;;4915592;28;89550;-31
2022/01/16 03:29:08;;;;;;;87.30;50.65;;;2.00;99.90;;;;;;4915996;28;88799;-32
2022/01/16 03:31:34;;;;;;;92.35;52.63;;;2.00;99.90;;;;;;4915884;28;88468;-32
2022/01/16 03:34:00;;;;;;;88.57;52.50;;;2.00;99.90;;;;;;4915363;28;90506;-30
2022/01/16 03:36:26;;;;;;;97.45;52.22;;;2.00;99.90;;;;;;4916094;28;89708;-33
2022/01/16 03:38:52;;;;;;;90.30;53.38;;;2.00;99.90;;;;;;4915645;28;87875;-30
2022/01/16 03:41:18;;;;;;;100.72;52.60;;;2.00;99.90;;;;;;4915928;28;89063;-28
2022/01/16 03:43:43;;;;;;;87.75;53.08;;;2.00;99.90;;;;;;4915964;28;89893;-30
2022/01/16 03:46:09;;;;;;;89.15;49.20;;;2.10;99.90;;;;;;4915777;28;88463;-29
2022/01/16 03:48:34;;;;;;;94.05;53.75;;;2.10;99.90;;;;;;4916124;28;87583;-32
2022/01/16 03:51:00;;;;;;;87.45;51.95;;;2.10;99.90;;;;;;4915921;28;87691;-31
2022/01/16 03:53:26;;;;;;;92.80;51.40;;;2.10;99.90;;;;;;4915299;28;90398;-32
2022/01/16 03:55:51;;;;;;;98.47;54.85;;;2.10;99.90;;;;;;4915573;28;88678;-30
2022/01/16 03:58:17;;;;;;;97.15;54.83;;;2.10;99.90;;;;;;4916158;28;88134;-30
2022/01/16 04:00:44;;;;;;;92.10;51.40;;;2.10;99.90;;;;;;4916115;28;87559;-31
2022/01/16 04:03:11;;;;;;;96.63;54.05;;;2.10;99.90;;;;;;4914912;28;90134;-32
2022/01/16 04:05:36;;;;;;;92.10;52.80;;;2.20;99.90;;;;;;4915592;28;89858;-31
2022/01/16 04:08:02;;;;;;;91.00;52.80;;;2.20;99.90;;;;;;4915694;28;87816;-31
2022/01/16 04:10:28;;;;;;;101.05;54.08;;;2.20;99.90;;;;;;4898496;28;89052;-28
2022/01/16 04:12:54;;;;;;;89.95;54.15;;;2.20;99.90;;;;;;4916186;28;90194;-32
2022/01/16 04:17:45;;;;;;;98.03;55.30;;;2.30;99.90;;;;;;4918628;28;88850;-31
2022/01/16 04:20:16;;;;;;;94.57;53.53;;;2.30;99.90;;;;;;4918774;28;88112;-31
2022/01/16 04:22:42;;;;;;;100.50;53.25;;;2.30;99.90;;;;;;4918795;28;90453;-30
2022/01/16 04:25:08;;;;;;;105.63;56.10;;;2.30;99.90;;;;;;4918424;28;88327;-30
2022/01/16 04:27:34;;;;;;;100.30;55.85;;;2.40;99.90;;;;;;4918696;28;87600;-32
2022/01/16 04:30:00;;;;;;;99.75;54.78;;;2.40;99.90;;;;;;4918758;28;87660;-29
2022/01/16 04:32:25;;;;;;;92.85;55.40;;;2.40;99.90;;;;;;4918685;28;90495;-30
2022/01/16 04:34:51;;;;;;;93.50;53.78;;;2.40;99.90;;;;;;4917829;28;89747;-29
2022/01/16 04:37:17;;;;;;;91.13;49.35;;;2.50;99.90;;;;;;4918816;28;87624;-29
2022/01/16 04:39:49;;;;;;;104.72;57.05;;;2.50;99.90;;;;;;4918752;28;87659;-30
2022/01/16 04:44:59;;;;;;;100.43;54.38;;;2.50;99.90;;;;;;4917877;28;89628;-29
2022/01/16 04:47:24;;;;;;;111.10;58.13;;;2.50;99.90;;;;;;4918373;28;87656;-30
2022/01/16 04:49:50;;;;;;;101.90;54.45;;;2.50;99.90;;;;;;4918268;28;88483;-34
2022/01/16 04:52:16;;;;;;;93.57;55.28;;;2.50;99.90;;;;;;4918291;28;90254;-30
2022/01/16 04:54:41;;;;;;;89.32;51.90;;;2.60;99.90;;;;;;4918235;28;89318;-31
2022/01/16 04:57:07;;;;;;;107.10;59.00;;;2.60;99.90;;;;;;4918379;28;88427;-32
2022/01/16 04:59:33;;;;;;;108.65;57.05;;;2.60;99.90;;;;;;4918109;28;87707;-31
2022/01/16 05:01:58;;;;;;;82.53;52.08;;;2.60;99.90;;;;;;4917922;28;90671;-31
2022/01/16 05:04:24;;;;;;;101.72;54.30;;;2.60;99.90;;;;;;4918277;28;88254;-30
2022/01/16 05:06:49;;;;;;;96.15;55.80;;;2.60;99.90;;;;;;4918437;28;87657;-32
2022/01/16 05:09:15;;;;;;;104.32;57.10;;;2.70;99.90;;;;;;4917846;28;87643;-29
2022/01/16 05:11:41;;;;;;;90.75;53.50;;;2.70;99.90;;;;;;4918266;28;90167;-29
2022/01/16 05:19:02;;;;;;;101.75;57.05;;;2.70;99.90;;;;;;4917825;28;88030;-30
2022/01/16 05:21:27;;;;;;;97.60;57.17;;;2.70;99.90;;;;;;4918009;28;90173;-30
2022/01/16 05:23:53;;;;;;;94.03;56.60;;;2.80;99.90;;;;;;4917028;28;88256;-32
2022/01/16 05:26:25;;;;;;;94.55;55.47;;;2.80;99.90;;;;;;4918151;28;88017;-31
2022/01/16 05:28:51;;;;;;;100.32;55.15;;;2.80;99.90;;;;;;4918065;28;87639;-29
2022/01/16 05:31:16;;;;;;;92.75;56.38;;;2.80;99.90;;;;;;4917685;28;90188;-31
2022/01/16 05:33:42;;;;;;;92.10;58.45;;;2.80;99.90;;;;;;4917517;28;89537;-31
2022/01/16 05:36:08;;;;;;;96.07;56.65;;;2.80;99.90;;;;;;4917489;28;88088;-29
2022/01/16 05:38:33;;;;;;;95.57;56.28;;;2.90;99.90;;;;;;4917385;28;88508;-31
2022/01/16 05:40:59;;;;;;;100.05;55.15;;;2.80;99.90;;;;;;4917136;28;89923;-30
2022/01/16 05:43:25;;;;;;;103.82;58.80;;;2.90;99.90;;;;;;4917505;28;89725;-30
2022/01/16 05:45:50;;;;;;;97.70;55.85;;;2.90;99.90;;;;;;4917733;28;87643;-30
2022/01/16 05:48:16;;;;;;;82.78;53.03;;;2.90;99.90;;;;;;4917147;28;87795;-32
2022/01/16 05:50:41;;;;;;;88.32;54.63;;;2.90;99.90;;;;;;4900062;28;93143;-30
2022/01/16 05:53:07;;;;;;;99.03;56.88;;;2.90;99.90;;;;;;4899875;28;89767;-30
2022/01/16 05:55:38;;;;;;;96.22;58.30;;;2.90;99.90;;;;;;4917408;28;88597;-29
2022/01/16 05:58:09;;;;;;;100.47;58.70;;;2.90;99.90;;;;;;4916940;28;87529;-30
2022/01/16 06:00:37;;;;;;;99.80;59.60;;;2.90;99.90;;;;;;4917445;28;88959;-29
2022/01/16 06:03:03;;;;;;;109.45;59.58;;;2.90;99.90;;;;;;4917055;28;90321;-28
2022/01/16 06:05:29;;;;;;;85.78;54.08;;;2.90;99.90;;;;;;4917140;28;87604;-31
2022/01/16 06:08:00;;;;;;;100.88;58.78;;;3.00;99.90;;;;;;4917305;28;88853;-35
2022/01/16 06:10:26;;;;;;;91.18;56.47;;;3.00;99.90;;;;;;4917451;28;90317;-33
2022/01/16 06:12:53;;;;;;;99.88;56.92;;;3.00;99.90;;;;;;4917107;28;89395;-30
2022/01/16 06:15:20;;;;;;;94.20;54.80;;;3.00;99.90;;;;;;4917260;28;87608;-29
2022/01/16 06:17:46;;;;;;;95.93;55.15;;;3.00;99.90;;;;;;4917073;28;87700;-32
2022/01/16 06:20:14;;;;;;;97.97;57.13;;;3.10;99.90;;;;;;4916982;28;90378;-30
2022/01/16 06:22:40;;;;;;;101.28;58.63;;;3.10;99.90;;;;;;4916500;28;88737;-30
2022/01/16 06:25:06;;;;;;;91.63;58.38;;;3.10;99.90;;;;;;4916737;28;88020;-34
2022/01/16 06:27:31;;;;;;;84.40;55.55;;;3.10;99.90;;;;;;4917191;28;87686;-29
2022/01/16 06:29:57;;;;;;;105.65;59.72;;;3.10;99.90;;;;;;4916154;28;90363;-30
2022/01/16 06:32:22;;;;;;;100.22;58.78;;;3.20;99.90;;;;;;4917054;28;90364;-30
2022/01/16 06:34:48;;;;;;;104.15;57.58;;;3.10;99.90;;;;;;4916257;28;89066;-31
2022/01/16 06:37:14;;;;;;;98.72;59.33;;;3.10;99.90;;;;;;4916574;28;87703;-31
2022/01/16 06:39:39;;;;;;;103.97;58.05;;;3.10;99.90;;;;;;4916478;28;90290;-31
2022/01/16 06:42:05;;;;;;;89.35;58.05;;;3.20;99.90;;;;;;4915710;28;88755;-30
2022/01/16 06:44:30;;;;;;;101.80;57.65;;;3.20;99.90;;;;;;4916672;28;87757;-29
2022/01/16 06:46:56;;;;;;;99.30;58.28;;;3.20;99.90;;;;;;4916966;28;88363;-31
2022/01/16 06:49:22;;;;;;;105.63;61.20;;;3.20;99.90;;;;;;4915974;28;91323;-33
2022/01/16 06:51:47;;;;;;;108.40;58.55;;;3.20;99.90;;;;;;4916965;28;89561;-30
2022/01/16 06:54:13;;;;;;;95.45;53.33;;;3.20;99.90;;;;;;4916457;28;87797;-30
2022/01/16 06:56:38;;;;;;;99.50;59.13;;;3.20;99.90;;;;;;4916730;28;87735;-32
2022/01/16 06:59:04;;;;;;;92.45;55.15;;;3.20;99.90;;;;;;4916172;28;90364;-30
2022/01/16 07:01:30;;;;;;;89.85;55.50;;;3.20;99.90;;;;;;4916294;28;89229;-33
2022/01/16 07:03:56;;;;;;;104.43;56.08;;;3.20;99.90;;;;;;4916538;28;87750;-29
2022/01/16 07:06:22;;;;;;;99.97;58.47;;;3.20;99.90;;;;;;4916271;28;89395;-31
2022/01/16 07:08:48;;;;;;;113.78;62.75;;;3.20;99.90;;;;;;4916128;28;90657;-30
2022/01/16 07:11:15;;;;;;;112.70;60.13;;;3.30;99.90;;;;;;4916231;28;89574;-31
2022/01/16 07:13:40;;;;;;;109.43;60.15;;;3.30;99.90;;;;;;4916294;28;87536;-29
2022/01/16 07:16:06;;;;;;;98.28;56.40;;;3.30;99.90;;;;;;4916044;28;87769;-34
2022/01/16 07:18:31;;;;;;;103.50;58.85;;;3.40;99.90;;;;;;4916173;28;90211;-32
2022/01/16 07:20:57;;;;;;;105.03;56.33;;;3.40;99.90;;;;;;4916067;28;89460;-30
2022/01/16 07:23:23;;;;;;;105.88;62.15;;;3.30;99.90;;;;;;4915782;28;88006;-30
2022/01/16 07:25:49;;;;;;;101.90;58.92;;;3.30;99.90;;;;;;4916266;28;87920;-30
2022/01/16 07:28:15;;;;;;;114.55;61.40;;;3.40;99.90;;;;;;4915968;28;90145;-30
2022/01/16 07:30:42;;;;;;;102.97;58.00;;;3.40;99.90;;;;;;4899054;28;89908;-31
2022/01/16 07:33:08;;;;;;;100.45;55.85;;;3.40;99.90;;;;;;4915506;28;87811;-30
2022/01/16 07:35:36;;;;;;;109.20;62.20;;;3.40;99.90;;;;;;4916044;28;87671;-32
2022/01/16 07:38:03;;;;;;;106.65;60.40;;;3.40;99.90;;;;;;4915496;28;90866;-32
2022/01/16 07:40:29;;;;;;;102.82;56.70;;;3.50;99.90;;;;;;4916069;28;89868;-29
2022/01/16 07:42:55;;;;;;;98.53;58.28;;;3.50;99.90;;;;;;4902680;28;91620;-29
2022/01/16 07:45:21;;;;;;;109.43;58.25;;;3.50;99.90;;;;;;4896652;28;87514;-29
2022/01/16 07:47:48;;;;;;;115.13;60.38;;;3.50;99.90;;;;;;4882026;28;90674;-31
2022/01/16 07:50:15;;;;;;;99.32;57.05;;;3.50;99.90;;;;;;4898942;28;88743;-29
2022/01/16 07:52:41;;;;;;;95.63;55.50;;;3.50;99.90;;;;;;4900437;28;88124;-29
2022/01/16 07:55:07;;;;;;;113.53;59.67;;;3.60;99.90;;;;;;4899357;28;87554;-31
2022/01/16 07:57:33;;;;;;;97.85;60.40;;;3.60;99.90;;;;;;4899802;28;89636;-31
2022/01/16 07:59:58;;;;;;;95.93;56.63;;;3.70;99.90;;;;;;4899713;28;88783;-30
2022/01/16 08:02:24;;;;;;;105.15;60.30;;;3.60;99.90;;;;;;4899549;28;87584;-29
2022/01/16 08:04:50;;;;;;;97.05;58.88;;;3.70;99.90;;;;;;4898672;28;87701;-34
2022/01/16 08:07:15;;;;;;;109.35;58.25;;;3.70;99.90;;;;;;4898995;28;90120;-29
2022/01/16 08:09:42;;;;;;;94.72;56.42;;;3.70;99.90;;;;;;4825280;28;89810;-31
2022/01/16 08:12:08;;;;;;;96.68;57.08;;;3.70;99.90;;;;;;4918571;28;88360;-30
2022/01/16 08:14:34;;;;;;;100.53;58.78;;;3.70;99.90;;;;;;4918763;28;87596;-34
2022/01/16 08:17:01;;;;;;;111.60;59.90;;;3.70;99.90;;;;;;4918411;28;88825;-31
2022/01/16 08:19:27;;;;;;;90.13;53.53;;;3.80;99.90;;;;;;4917468;28;90200;-30
2022/01/16 08:21:54;;;;;;;100.63;57.30;;;3.80;99.90;;;;;;4918560;28;87534;-29
2022/01/16 08:24:19;;;;;;;93.47;55.60;;;3.90;99.90;;;;;;4918743;28;88054;-32
2022/01/16 08:26:45;;;;;;;101.07;58.53;;;3.90;99.90;;;;;;4917827;28;89060;-29
2022/01/16 08:29:11;;;;;;;105.10;57.83;;;3.80;99.90;;;;;;4917137;28;88664;-30
2022/01/16 08:31:37;;;;;;;97.28;57.33;;;3.80;99.90;;;;;;4918151;28;87992;-30
2022/01/16 08:34:03;;;;;;;102.90;55.92;;;3.80;99.90;;;;;;4918794;28;87832;-31
2022/01/16 08:36:28;;;;;;;93.97;52.45;;;3.90;99.90;;;;;;4918719;28;90529;-29
2022/01/16 08:38:54;;;;;;;94.65;55.72;;;3.90;99.90;;;;;;4918157;28;89676;-31
2022/01/16 08:41:24;;;;;;;96.47;59.95;;;3.90;99.90;;;;;;4918279;28;87564;-30
2022/01/16 08:43:50;;;;;;;89.10;55.50;;;3.90;99.90;;;;;;4916785;28;88474;-34
2022/01/16 08:46:16;;;;;;;97.32;60.55;;;3.90;99.90;;;;;;4918589;28;89445;-31
2022/01/16 08:48:42;;;;;;;101.38;56.83;;;4.00;99.90;;;;;;4918157;28;89380;-33
2022/01/16 08:51:08;;;;;;;92.40;58.17;;;4.00;99.90;;;;;;4908731;28;87747;-31
2022/01/16 08:53:34;;;;;;;89.78;57.97;;;4.00;99.90;;;;;;4899607;28;88051;-31
2022/01/16 08:56:00;;;;;;;103.75;59.15;;;4.10;99.90;;;;;;4906270;28;90560;-30
2022/01/16 08:58:26;;;;;;;89.85;56.28;;;4.10;99.90;;;;;;4916225;28;89936;-33
2022/01/16 09:00:52;;;;;;;98.82;56.63;;;4.10;99.90;;;;;;4926032;28;87592;-31
2022/01/16 09:03:20;;;;;;;92.50;54.92;;;4.10;99.90;;;;;;4907875;28;88532;-31
2022/01/16 09:05:46;;;;;;;89.35;54.85;;;4.20;99.90;;;;;;4925528;28;88876;-29
2022/01/16 09:08:13;;;;;;;89.38;56.88;;;4.30;99.90;;;;;;4926298;28;90088;-35
2022/01/16 09:10:41;;;;;;;87.30;55.13;;;4.30;99.90;;;;;;4912859;28;88066;-31
2022/01/16 09:13:11;;;;;;;93.97;57.88;;;4.30;99.90;;;;;;4890184;28;87651;-29
2022/01/16 09:15:40;;;;;;;82.35;56.17;;;4.40;99.90;;;;;;4923028;28;90019;-31
2022/01/16 09:18:06;;;;;;;;;;;4.40;99.90;;;;;;4923157;28;88367;-32
2022/01/16 09:20:32;;;;;;;86.40;55.25;;;4.40;99.90;;;;;;4925502;28;88709;-33
2022/01/16 09:22:57;;;;;;;92.78;56.55;;;4.50;99.90;;;;;;4923306;28;87620;-30
2022/01/16 09:25:23;;;;;;;92.47;56.15;;;4.50;99.90;;;;;;4922674;28;90577;-31
2022/01/16 09:27:49;;;;;;;83.53;53.92;;;4.50;99.90;;;;;;4922314;28;88620;-31
2022/01/16 09:30:15;;;;;;;89.85;55.50;;;4.60;99.90;;;;;;4922735;28;88140;-34
2022/01/16 09:32:40;;;;;;;88.80;56.30;;;4.70;99.90;;;;;;4923913;28;87629;-31
2022/01/16 09:35:07;;;;;;;85.80;55.65;;;4.70;99.90;;;;;;4919077;28;90184;-33
2022/01/16 09:37:33;;;;;;;85.43;56.13;;;4.80;99.90;;;;;;4903832;28;90183;-30
2022/01/16 09:39:59;;;;;;;92.80;56.40;;;4.80;99.90;;;;;;4904361;28;88527;-31
2022/01/16 09:42:26;;;;;;;80.15;54.00;;;4.90;99.90;;;;;;4903294;28;88814;-32
2022/01/16 09:44:52;;;;;;;81.93;52.17;;;5.00;99.90;;;;;;4903283;28;90054;-32
2022/01/16 09:47:17;;;;;;;90.22;53.17;;;5.00;99.90;;;;;;4920448;28;89495;-35
2022/01/16 09:49:44;;;;;;;85.38;53.72;;;5.10;99.90;;;;;;4922967;28;87581;-34
2022/01/16 09:52:10;;;;;;;82.22;53.55;;;5.10;99.90;;;;;;4923145;28;88866;-34
2022/01/16 09:54:37;;;;;;;87.10;53.75;;;5.10;99.90;;;;;;4922286;28;90700;-31
2022/01/16 09:57:03;;;;;;;75.15;54.05;;;5.20;99.90;;;;;;4922720;28;89738;-33
2022/01/16 09:59:29;;;;;;;90.18;52.45;;;5.20;99.90;;;;;;4913525;28;87866;-33
2022/01/16 10:01:55;;;;;;;76.10;50.00;;;5.30;99.90;;;;;;4903348;28;87969;-34
2022/01/16 10:04:35;;;;;;;79.93;53.13;;;5.30;99.90;;;;;;4902439;28;89680;-31
2022/01/16 10:07:04;;;;;;;83.65;53.28;;;5.40;99.90;;;;;;4903052;28;88193;-31
2022/01/16 10:09:29;;;;;;;;;;;5.40;99.90;;;;;;4903892;28;88172;-31
2022/01/16 10:12:02;;;;;;;76.05;49.53;;;5.40;99.90;;;;;;4904963;28;87727;-33
2022/01/16 10:14:37;;;;;;;74.45;51.33;;;5.50;99.90;;;;;;4902602;28;89846;-33
2022/01/16 10:17:17;;;;;;;64.53;47.40;;;5.60;99.90;;;;;;4902633;28;89858;-32
2022/01/16 10:19:44;;;;;;;68.82;49.85;;;5.60;99.90;;;;;;4903403;28;88224;-31
2022/01/16 10:22:13;;;;;;;67.53;44.03;;;5.70;99.90;;;;;;4902936;28;88217;-31
2022/01/16 10:24:39;;;;;;;63.72;47.70;;;5.70;99.90;;;;;;4905207;28;91319;-35
2022/01/16 10:27:08;;;;;;;67.15;46.38;;;5.80;99.90;;;;;;4922017;28;90514;-30
2022/01/16 10:29:41;;;;;;;63.97;45.75;;;5.80;99.90;;;;;;4922458;28;88677;-33
2022/01/16 10:32:33;;;;;;;72.05;42.63;;;5.80;99.90;;;;;;4922186;28;88685;-31
2022/01/16 10:35:28;;;;;;;64.13;44.53;;;5.80;99.90;;;;;;4921300;28;90644;-31
2022/01/16 10:37:56;;;;;;;65.85;45.25;;;5.90;99.90;;;;;;4906012;28;89631;-33
2022/01/16 10:40:33;;;;;;;72.80;43.42;;;5.90;99.90;;;;;;4902906;28;88390;-30
2022/01/16 10:43:03;;;;;;;61.13;42.08;;;5.90;99.90;;;;;;4902464;28;88179;-34
2022/01/16 10:45:29;;;;;;;67.13;43.10;;;5.90;99.90;;;;;;4905430;28;90105;-31
2022/01/16 10:48:00;;;;;;;64.75;45.80;;;6.00;99.90;;;;;;4912359;28;89830;-31
2022/01/16 10:50:35;;;;;;;65.82;45.08;;;6.00;99.90;;;;;;4903635;28;88926;-33
2022/01/16 10:53:05;;;;;;;64.03;45.05;;;6.00;99.90;;;;;;4903104;28;87854;-36
2022/01/16 10:55:35;;;;;;;71.65;48.97;;;6.00;99.90;;;;;;4922196;28;90347;-33
2022/01/16 10:58:07;;;;;;;66.22;47.38;;;6.00;99.90;;;;;;4932848;28;88353;-33
2022/01/16 11:00:33;;;;;;;66.72;46.83;;;6.00;99.90;;;;;;4916278;28;88820;-31
2022/01/16 11:03:04;;;;;;;62.65;44.67;;;6.00;99.90;;;;;;4874241;28;87953;-32
2022/01/16 11:05:41;;;;;;;71.03;45.97;;;6.00;99.90;;;;;;4911572;28;90235;-34
2022/01/16 11:08:12;;;;;;;63.92;42.53;;;6.00;99.90;;;;;;4914113;28;89788;-31
2022/01/16 11:10:58;;;;;;;63.90;40.22;;;6.00;99.90;;;;;;4913137;28;87897;-34
2022/01/16 11:13:32;;;;;;;61.35;39.53;;;6.00;99.90;;;;;;4904006;28;87678;-32
2022/01/16 11:16:04;;;;;;;59.38;38.60;;;6.00;99.90;;;;;;4833658;28;100435;-34
2022/01/16 11:18:35;;;;;;;54.15;38.28;;;6.00;99.90;;;;;;4913825;28;90146;-32
2022/01/16 11:21:15;;;;;;;56.25;39.70;;;6.00;99.90;;;;;;4913614;28;87904;-30
2022/01/16 11:24:24;;;;;;;48.15;36.22;;;6.10;99.90;;;;;;4913694;28;88325;-31
2022/01/16 11:26:48;;;;;;;52.38;37.92;;;6.10;99.90;;;;;;4913333;28;90036;-31
2022/01/16 11:29:14;;;;;;;54.67;32.50;;;6.20;99.90;;;;;;4913395;28;89769;-32
2022/01/16 11:31:43;;;;;;;48.03;34.33;;;6.20;99.90;;;;;;4913508;28;88076;-31
2022/01/16 11:34:09;;;;;;;49.70;32.60;;;6.30;99.90;;;;;;4913223;28;89150;-30
2022/01/16 11:36:35;;;;;;;44.85;33.38;;;6.30;99.90;;;;;;4913283;28;90364;-32
2022/01/16 11:39:04;;;;;;;44.17;32.92;;;6.30;99.90;;;;;;4913552;28;89634;-33
2022/01/16 11:41:37;;;;;;;53.70;34.05;;;6.30;99.90;;;;;;4945270;23;87978;-31
2022/01/16 11:44:06;;;;;;;48.10;34.05;;;6.30;99.90;;;;;;4913686;28;87512;-31
2022/01/16 11:46:48;;;;;;;44.72;32.10;;;6.30;99.90;;;;;;4913208;28;90472;-32
2022/01/16 11:49:18;;;;;;;49.90;33.92;;;6.30;99.90;;;;;;4913020;28;89600;-34
2022/01/16 11:51:51;;;;;;;43.67;31.52;;;6.30;99.90;;;;;;4896820;28;87845;-32
2022/01/16 11:54:27;;;;;;;41.75;30.02;;;6.30;99.90;;;;;;4912687;28;88485;-33
2022/01/16 11:56:57;;;;;;;40.70;30.20;;;6.30;99.90;;;;;;4913036;28;90319;-33
2022/01/16 11:59:24;;;;;;;43.70;29.33;;;6.30;99.90;;;;;;4912796;28;89761;-34
2022/01/16 12:01:55;;;;;;;45.78;29.10;;;6.30;99.90;;;;;;4912005;28;88256;-31
2022/01/16 12:04:30;;;;;;;39.20;27.70;;;6.30;99.90;;;;;;4912775;28;89002;-34
2022/01/16 12:07:00;;;;;;;46.78;29.40;;;6.30;99.90;;;;;;4910049;28;89602;-33
2022/01/16 12:09:40;;;;;;;38.65;28.42;;;6.30;99.90;;;;;;4894214;28;90121;-32
2022/01/16 12:12:31;;;;;;;37.53;26.13;;;6.40;99.90;;;;;;4893834;28;87566;-31
2022/01/16 12:15:05;;;;;;;34.90;24.70;;;6.30;99.90;;;;;;4890070;28;88114;-33
2022/01/16 12:17:30;;;;;;;30.95;22.52;;;6.40;99.90;;;;;;4893514;28;90693;-32
2022/01/16 12:22:56;;;;;;;29.67;21.77;;;6.40;99.90;;;;;;4893382;28;87633;-33
2022/01/16 12:25:33;;;;;;;42.90;22.80;;;6.50;99.90;;;;;;4893272;28;87685;-32
2022/01/16 12:28:04;;;;;;;34.67;21.35;;;6.50;99.90;;;;;;4888637;28;88971;-32
2022/01/16 12:30:55;;;;;;;27.00;19.40;;;6.50;99.90;;;;;;4912465;28;89754;-31
2022/01/16 12:33:42;;;;;;;24.80;18.90;;;6.50;99.90;;;;;;4894884;28;87874;-32
2022/01/16 12:36:39;;;;;;;24.98;17.55;;;6.50;99.90;;;;;;4915167;28;88137;-30
2022/01/16 12:39:06;;;;;;;25.67;19.38;;;6.50;99.90;;;;;;4892635;28;90230;-33
2022/01/16 12:41:38;;;;;;;27.00;17.55;;;6.60;99.90;;;;;;4915169;28;89528;-33
2022/01/16 12:44:07;;;;;;;26.27;17.50;;;6.60;99.90;;;;;;4897192;28;88294;-30
2022/01/16 12:46:35;;;;;;;25.40;17.55;;;6.60;99.90;;;;;;4914533;28;87596;-31
2022/01/16 12:49:11;;;;;;;25.23;16.88;;;6.60;99.90;;;;;;4913600;28;90300;-32
2022/01/16 12:51:40;;;;;;;27.48;19.05;;;6.60;99.90;;;;;;4915813;28;89846;-31
2022/01/16 12:54:09;;;;;;;24.15;17.10;;;6.60;99.90;;;;;;4915703;28;87913;-31
2022/01/16 12:56:46;;;;;;;20.92;15.68;;;6.60;99.90;;;;;;4915087;28;90687;-32
2022/01/16 12:59:22;;;;;;;20.90;14.35;;;6.60;99.90;;;;;;4932361;28;90460;-33
2022/01/16 13:01:52;;;;;;;23.60;16.58;;;6.60;99.90;;;;;;4918992;28;89861;-32
2022/01/16 13:04:33;;;;;;;20.83;16.02;;;6.60;99.90;;;;;;4914544;28;87765;-33
2022/01/16 13:07:02;;;;;;;23.67;17.05;;;6.60;99.90;;;;;;4914499;28;87787;-31
2022/01/16 13:09:28;;;;;;;20.15;16.70;;;6.60;99.90;;;;;;4914608;28;88903;-31
2022/01/16 13:11:59;;;;;;;21.83;15.45;;;6.70;99.90;;;;;;4914880;28;88617;-32
2022/01/16 13:14:30;;;;;;;20.77;14.70;;;6.70;99.90;;;;;;4914163;28;87763;-30
2022/01/16 13:17:01;;;;;;;25.13;16.13;;;6.70;99.90;;;;;;4914223;28;88207;-30
2022/01/16 13:19:39;;;;;;;24.13;15.43;;;6.70;99.90;;;;;;4914005;28;87868;-32
2022/01/16 13:24:37;;;;;;;20.63;15.23;;;6.70;99.90;;;;;;4914200;28;87603;-32
2022/01/16 13:27:31;;;;;;;24.27;15.55;;;6.70;99.90;;;;;;4914045;28;88711;-31
2022/01/16 13:30:10;;;;;;;25.73;16.65;;;6.70;99.90;;;;;;4906526;28;90868;-30